Time;durP1;ratioP1;P1;durP2;ratioP2;P2;SDS_P1;SDS_P2;PMS_P1;PMS_P2;Temp;Humidity;BMP_temperature;BMP_pressure;BME280_temperature;BME280_humidity;BME280_pressure;Samples;Min_cycle;Max_cycle;Signal;HPM_P1;HPM_P2
2024/02/11 00:02:06;;;;;;;17.30;10.45;;;8.70;99.90;;;;;;5099174;28;20047;-66
2024/02/11 00:04:32;;;;;;;16.10;10.25;;;8.70;99.90;;;;;;5095912;28;20043;-68
2024/02/11 00:06:57;;;;;;;;;;;8.70;99.90;;;;;;5099934;28;20169;-70
2024/02/11 00:09:24;;;;;;;16.17;10.40;;;8.80;99.90;;;;;;5101882;28;20471;-67
2024/02/11 00:11:50;;;;;;;17.17;9.15;;;8.70;99.90;;;;;;5104929;27;20519;-68
2024/02/11 00:14:16;;;;;;;16.33;9.38;;;8.70;99.90;;;;;;5097404;28;20039;-67
2024/02/11 00:16:41;;;;;;;;;;;8.70;99.90;;;;;;5099171;28;20040;-67
2024/02/11 00:19:07;;;;;;;16.92;10.07;;;8.70;99.90;;;;;;5074769;28;19938;-68
2024/02/11 00:21:33;;;;;;;;;;;8.70;99.90;;;;;;5088891;28;20404;-68
2024/02/11 00:23:59;;;;;;;17.25;9.88;;;8.70;99.90;;;;;;5082726;28;19971;-66
2024/02/11 00:26:25;;;;;;;;;;;8.70;99.90;;;;;;5081115;28;20232;-69
2024/02/11 00:28:50;;;;;;;14.65;8.98;;;8.70;99.90;;;;;;5068579;28;19975;-67
2024/02/11 00:31:17;;;;;;;;;;;8.70;99.90;;;;;;5083122;28;20074;-68
2024/02/11 00:33:44;;;;;;;17.70;10.77;;;8.70;99.90;;;;;;5086676;28;19920;-70
2024/02/11 00:36:10;;;;;;;22.80;12.65;;;8.70;99.90;;;;;;5090455;28;20151;-69
2024/02/11 00:38:35;;;;;;;;;;;8.70;99.90;;;;;;5086964;28;20210;-68
2024/02/11 00:41:03;;;;;;;20.75;10.73;;;8.70;99.90;;;;;;5085607;28;20344;-68
2024/02/11 00:43:29;;;;;;;16.55;11.27;;;8.70;99.90;;;;;;5086177;28;20121;-69
2024/02/11 00:45:55;;;;;;;;;;;8.60;99.90;;;;;;5083759;28;20095;-66
2024/02/11 00:48:22;;;;;;;17.98;11.23;;;8.60;99.90;;;;;;5079587;28;19920;-69
2024/02/11 00:50:48;;;;;;;16.67;10.60;;;8.60;99.90;;;;;;5081582;28;20118;-67
2024/02/11 00:53:14;;;;;;;19.10;11.25;;;8.60;99.90;;;;;;5088938;28;20054;-69
2024/02/11 00:55:41;;;;;;;;;;;8.60;99.90;;;;;;5085664;28;20388;-67
2024/02/11 00:58:09;;;;;;;13.00;8.43;;;8.60;99.90;;;;;;5093271;28;19923;-66
2024/02/11 01:00:35;;;;;;;17.38;11.05;;;8.60;99.90;;;;;;5090985;28;20270;-67
2024/02/11 01:03:04;;;;;;;;;;;8.60;99.90;;;;;;5085254;28;20054;-67
2024/02/11 01:05:30;;;;;;;18.27;10.55;;;8.60;99.90;;;;;;5087140;28;19920;-68
2024/02/11 01:07:55;;;;;;;;;;;8.60;99.90;;;;;;5089842;28;20031;-67
2024/02/11 01:10:21;;;;;;;18.17;10.90;;;8.60;99.90;;;;;;5090032;28;19974;-67
2024/02/11 01:12:46;;;;;;;;;;;8.60;99.90;;;;;;5095644;28;20543;-69
2024/02/11 01:15:16;;;;;;;15.25;9.35;;;8.60;99.90;;;;;;5092769;28;19919;-67
2024/02/11 01:17:43;;;;;;;16.85;9.45;;;8.60;99.90;;;;;;5087877;28;20051;-68
2024/02/11 01:20:14;;;;;;;15.75;9.20;;;8.60;99.90;;;;;;5084394;28;20534;-67
2024/02/11 01:22:43;;;;;;;15.75;9.07;;;8.60;99.90;;;;;;5091860;28;20035;-67
2024/02/11 01:25:19;;;;;;;12.52;8.30;;;8.60;99.90;;;;;;5087748;28;20032;-67
2024/02/11 01:27:48;;;;;;;13.23;7.43;;;8.60;99.90;;;;;;5092322;28;20528;-70
2024/02/11 01:30:14;;;;;;;15.73;9.35;;;8.60;99.90;;;;;;5091226;28;20042;-67
2024/02/11 01:32:40;;;;;;;15.52;9.30;;;8.50;99.90;;;;;;5087198;28;20040;-68
2024/02/11 01:35:07;;;;;;;;;;;8.50;99.90;;;;;;5093583;28;20044;-67
2024/02/11 01:37:33;;;;;;;14.20;8.02;;;8.50;99.90;;;;;;5091389;28;19919;-67
2024/02/11 01:39:59;;;;;;;;;;;8.50;99.90;;;;;;5091863;28;20690;-68
2024/02/11 01:42:24;;;;;;;15.13;7.47;;;8.50;99.90;;;;;;5086209;28;19924;-67
2024/02/11 01:44:50;;;;;;;;;;;8.50;99.90;;;;;;5085576;28;20032;-65
2024/02/11 01:47:16;;;;;;;12.68;7.90;;;8.50;99.90;;;;;;5088686;28;20369;-68
2024/02/11 01:49:42;;;;;;;15.32;7.28;;;8.40;99.90;;;;;;5092593;28;20785;-67
2024/02/11 01:52:08;;;;;;;14.02;7.20;;;8.40;99.90;;;;;;5080711;28;20056;-68
2024/02/11 01:54:35;;;;;;;10.32;6.68;;;8.40;99.90;;;;;;5084851;28;20064;-67
2024/02/11 01:57:01;;;;;;;17.90;6.88;;;8.40;99.90;;;;;;5087579;28;20031;-68
2024/02/11 01:59:28;;;;;;;10.73;6.30;;;8.40;99.90;;;;;;5086471;28;20070;-68
2024/02/11 02:01:54;;;;;;;14.45;6.32;;;8.40;99.90;;;;;;5093511;28;20068;-68
2024/02/11 02:04:20;;;;;;;14.30;6.28;;;8.40;99.90;;;;;;5094296;28;20059;-67
2024/02/11 02:06:47;;;;;;;10.52;6.28;;;8.40;99.90;;;;;;5090665;28;20032;-67
2024/02/11 02:09:14;;;;;;;11.68;6.05;;;8.40;99.90;;;;;;5094121;28;20043;-68
2024/02/11 02:11:40;;;;;;;12.13;6.30;;;8.40;99.90;;;;;;5090044;28;20048;-68
2024/02/11 02:14:05;;;;;;;;;;;8.40;99.90;;;;;;5089316;28;20114;-67
2024/02/11 02:16:31;;;;;;;8.98;5.70;;;8.40;99.90;;;;;;5090547;28;19931;-67
2024/02/11 02:18:56;;;;;;;;;;;8.40;99.90;;;;;;5094936;28;20032;-67
2024/02/11 02:21:25;;;;;;;11.68;6.95;;;8.40;99.90;;;;;;5093731;28;20286;-67
2024/02/11 02:23:51;;;;;;;10.30;6.40;;;8.40;99.90;;;;;;5083064;28;20047;-68
2024/02/11 02:26:17;;;;;;;10.63;6.45;;;8.40;99.90;;;;;;5084466;28;20044;-67
2024/02/11 02:28:43;;;;;;;12.63;7.10;;;8.40;99.90;;;;;;5088831;28;20040;-67
2024/02/11 02:31:08;;;;;;;12.57;6.70;;;8.40;99.90;;;;;;5086610;28;20109;-68
2024/02/11 02:33:34;;;;;;;;;;;8.40;99.90;;;;;;5070558;28;20783;-69
2024/02/11 02:36:01;;;;;;;16.13;7.30;;;8.40;99.90;;;;;;5073200;28;19954;-68
2024/02/11 02:38:26;;;;;;;16.92;6.60;;;8.40;99.90;;;;;;5059600;28;20047;-67
2024/02/11 02:40:52;;;;;;;11.02;6.88;;;8.40;99.90;;;;;;5072586;28;20037;-67
2024/02/11 02:43:17;;;;;;;;;;;8.40;99.90;;;;;;5071093;28;20721;-68
2024/02/11 02:45:43;;;;;;;7.65;5.63;;;8.40;99.90;;;;;;5070511;28;20323;-67
2024/02/11 02:48:09;;;;;;;;;;;8.40;99.90;;;;;;5067997;28;20484;-69
2024/02/11 02:50:35;;;;;;;12.50;5.82;;;8.40;99.90;;;;;;5070372;28;19955;-69
2024/02/11 02:53:01;;;;;;;26.88;7.93;;;8.40;99.90;;;;;;5071452;28;20036;-68
2024/02/11 02:55:27;;;;;;;9.77;6.50;;;8.40;99.90;;;;;;5059592;28;20044;-69
2024/02/11 02:57:52;;;;;;;;;;;8.40;99.90;;;;;;5068120;28;20039;-68
2024/02/11 03:00:19;;;;;;;9.45;5.90;;;8.40;99.90;;;;;;5067054;28;19920;-68
2024/02/11 03:02:45;;;;;;;7.22;5.07;;;8.40;99.90;;;;;;5059683;28;20089;-68
2024/02/11 03:05:10;;;;;;;9.43;5.85;;;8.40;99.90;;;;;;5062577;28;20092;-68
2024/02/11 03:07:40;;;;;;;;;;;8.40;99.90;;;;;;5063184;28;20491;-68
2024/02/11 03:10:07;;;;;;;8.52;4.72;;;8.40;99.90;;;;;;5066803;28;19964;-66
2024/02/11 03:12:32;;;;;;;8.60;6.22;;;8.40;99.90;;;;;;5062249;28;20051;-69
2024/02/11 03:14:58;;;;;;;9.82;6.38;;;8.50;99.90;;;;;;5061754;28;20032;-68
2024/02/11 03:17:23;;;;;;;;;;;8.50;99.90;;;;;;5064148;28;21118;-68
2024/02/11 03:19:49;;;;;;;12.68;5.22;;;8.50;99.90;;;;;;5061354;28;19920;-68
2024/02/11 03:22:15;;;;;;;8.70;5.35;;;8.50;99.90;;;;;;5059307;28;20029;-69
2024/02/11 03:24:41;;;;;;;12.68;5.60;;;8.50;99.90;;;;;;5055482;28;20036;-67
2024/02/11 03:27:07;;;;;;;9.13;5.63;;;8.50;99.90;;;;;;5051562;28;20412;-67
2024/02/11 03:29:33;;;;;;;11.32;5.43;;;8.50;99.90;;;;;;5046571;28;20598;-69
2024/02/11 03:31:59;;;;;;;11.18;5.65;;;8.50;99.90;;;;;;5079878;28;20047;-68
2024/02/11 03:34:25;;;;;;;;;;;8.40;99.90;;;;;;5091298;28;20036;-67
2024/02/11 03:36:52;;;;;;;8.20;4.25;;;8.50;99.90;;;;;;5088899;28;19919;-68
2024/02/11 03:39:19;;;;;;;9.35;5.30;;;8.50;99.90;;;;;;5090892;28;20116;-69
2024/02/11 03:41:45;;;;;;;8.80;5.18;;;8.50;99.90;;;;;;5090583;28;20484;-69
2024/02/11 03:44:11;;;;;;;9.15;5.03;;;8.50;99.90;;;;;;5091156;28;20066;-68
2024/02/11 03:46:37;;;;;;;7.50;4.55;;;8.50;99.90;;;;;;5089654;28;20036;-68
2024/02/11 03:49:03;;;;;;;;;;;8.50;99.90;;;;;;5095515;28;20039;-68
2024/02/11 03:51:32;;;;;;;8.25;5.70;;;8.50;99.90;;;;;;5090244;28;19920;-67
2024/02/11 03:54:01;;;;;;;9.80;5.97;;;8.50;99.90;;;;;;5090223;28;20082;-68
2024/02/11 03:56:28;;;;;;;9.60;5.15;;;8.50;99.90;;;;;;5085469;28;20044;-67
2024/02/11 03:58:55;;;;;;;12.68;5.90;;;8.50;99.90;;;;;;5096704;28;20338;-68
2024/02/11 04:01:21;;;;;;;9.25;5.63;;;8.50;99.90;;;;;;5086046;28;20043;-66
2024/02/11 04:03:46;;;;;;;12.43;6.40;;;8.50;99.90;;;;;;5094334;28;20118;-67
2024/02/11 04:06:13;;;;;;;;;;;8.50;99.90;;;;;;5094118;28;20200;-67
2024/02/11 04:08:41;;;;;;;8.45;5.85;;;8.50;99.90;;;;;;5093973;28;19916;-67
2024/02/11 04:11:07;;;;;;;11.23;6.13;;;8.40;99.90;;;;;;5089804;28;20044;-67
2024/02/11 04:13:33;;;;;;;10.52;6.05;;;8.40;99.90;;;;;;5093617;28;20734;-67
2024/02/11 04:16:05;;;;;;;;;;;8.40;99.90;;;;;;5095187;28;20142;-67
2024/02/11 04:18:32;;;;;;;13.55;6.00;;;8.40;99.90;;;;;;5094341;28;20333;-67
2024/02/11 04:20:59;;;;;;;13.75;7.00;;;8.40;99.90;;;;;;5090908;28;20051;-69
2024/02/11 04:23:25;;;;;;;10.55;6.75;;;8.40;99.90;;;;;;5080803;27;20067;-68
2024/02/11 04:25:52;;;;;;;;;;;8.40;99.90;;;;;;5082693;28;20082;-68
2024/02/11 04:28:20;;;;;;;13.27;5.97;;;8.30;99.90;;;;;;5085954;28;19916;-67
2024/02/11 04:30:46;;;;;;;9.27;5.38;;;8.30;99.90;;;;;;5088309;28;20040;-68
2024/02/11 04:33:20;;;;;;;;;;;8.30;99.90;;;;;;5089695;28;20042;-67
2024/02/11 04:35:46;;;;;;;9.20;5.72;;;8.20;99.90;;;;;;5085027;28;20014;-67
2024/02/11 04:38:12;;;;;;;11.45;5.82;;;8.30;99.90;;;;;;5093708;28;20051;-67
2024/02/11 04:40:39;;;;;;;;;;;8.30;99.90;;;;;;5091886;28;20040;-67
2024/02/11 04:43:04;;;;;;;10.00;5.40;;;8.30;99.90;;;;;;5096396;28;20010;-67
2024/02/11 04:45:30;;;;;;;;;;;8.30;99.90;;;;;;5089466;28;20119;-67
2024/02/11 04:47:58;;;;;;;12.00;5.05;;;8.30;99.90;;;;;;5091757;28;19962;-68
2024/02/11 04:50:28;;;;;;;13.65;6.05;;;8.30;99.90;;;;;;5086413;28;20039;-67
2024/02/11 04:52:55;;;;;;;10.48;5.60;;;8.30;99.90;;;;;;5098767;28;20422;-68
2024/02/11 04:55:27;;;;;;;9.60;4.75;;;8.20;99.90;;;;;;5083914;28;20101;-67
2024/02/11 04:57:55;;;;;;;7.88;4.28;;;8.20;99.90;;;;;;5092156;28;20043;-67
2024/02/11 05:00:25;;;;;;;8.32;4.63;;;8.20;99.90;;;;;;5089367;28;20035;-68
2024/02/11 05:02:55;;;;;;;10.00;4.53;;;8.20;99.90;;;;;;5087741;28;20043;-68
2024/02/11 05:05:30;;;;;;;6.78;3.95;;;8.20;99.90;;;;;;5088492;28;20093;-67
2024/02/11 05:08:03;;;;;;;7.80;3.90;;;8.20;99.90;;;;;;5085622;28;20093;-67
2024/02/11 05:10:34;;;;;;;5.45;3.42;;;8.20;99.90;;;;;;5088330;27;20040;-67
2024/02/11 05:13:04;;;;;;;5.22;3.92;;;8.20;99.90;;;;;;5094750;28;20071;-68
2024/02/11 05:15:34;;;;;;;5.72;3.55;;;8.20;99.90;;;;;;5085103;28;20032;-68
2024/02/11 05:18:00;;;;;;;10.88;3.95;;;8.20;99.90;;;;;;5085766;28;20028;-67
2024/02/11 05:20:28;;;;;;;5.88;3.83;;;8.20;99.90;;;;;;5089425;28;20652;-69
2024/02/11 05:22:55;;;;;;;7.80;3.47;;;8.20;99.90;;;;;;5090685;28;20036;-67
2024/02/11 05:25:22;;;;;;;5.78;3.58;;;8.20;99.90;;;;;;5086273;28;20047;-68
2024/02/11 05:27:55;;;;;;;6.30;3.50;;;8.20;99.90;;;;;;5090030;28;20051;-69
2024/02/11 05:30:23;;;;;;;8.23;3.40;;;8.30;99.90;;;;;;5096903;28;20411;-68
2024/02/11 05:32:58;;;;;;;9.75;3.28;;;8.20;99.90;;;;;;5091260;28;20054;-68
2024/02/11 05:35:25;;;;;;;6.20;3.42;;;8.30;99.90;;;;;;5086238;28;20061;-65
2024/02/11 05:37:57;;;;;;;4.35;2.90;;;8.30;99.90;;;;;;5091209;28;20151;-67
2024/02/11 05:40:33;;;;;;;5.75;2.65;;;8.30;99.90;;;;;;5093756;28;20123;-68
2024/02/11 05:42:59;;;;;;;6.18;3.08;;;8.30;99.90;;;;;;5091310;28;20055;-69
2024/02/11 05:45:26;;;;;;;8.35;3.10;;;8.30;99.90;;;;;;5087037;28;20771;-65
2024/02/11 05:47:52;;;;;;;5.03;2.70;;;8.30;99.90;;;;;;5092943;28;20036;-66
2024/02/11 05:50:19;;;;;;;6.28;3.25;;;8.30;99.90;;;;;;5096529;28;20044;-68
2024/02/11 05:52:45;;;;;;;6.70;3.20;;;8.30;99.90;;;;;;5082637;28;20043;-66
2024/02/11 05:55:15;;;;;;;;;;;8.30;99.90;;;;;;5093052;28;20434;-67
2024/02/11 05:57:45;;;;;;;9.75;3.30;;;8.30;99.90;;;;;;5088204;28;20504;-67
2024/02/11 06:00:18;;;;;;;4.15;3.00;;;8.30;99.90;;;;;;5091603;28;20111;-68
2024/02/11 06:02:48;;;;;;;6.13;3.33;;;8.30;99.90;;;;;;5065899;28;20040;-68
2024/02/11 06:05:15;;;;;;;8.77;3.60;;;8.30;99.90;;;;;;5073817;28;20036;-68
2024/02/11 06:07:41;;;;;;;10.25;3.60;;;8.20;99.90;;;;;;5069904;28;20036;-67
2024/02/11 06:10:13;;;;;;;;;;;8.20;99.90;;;;;;5073425;28;20123;-68
2024/02/11 06:12:42;;;;;;;4.13;3.22;;;8.20;99.90;;;;;;5067533;28;20371;-68
2024/02/11 06:15:10;;;;;;;8.32;4.15;;;8.20;99.90;;;;;;5066207;28;21235;-68
2024/02/11 06:17:37;;;;;;;5.20;3.28;;;8.20;99.90;;;;;;5072467;28;20581;-68
2024/02/11 06:20:04;;;;;;;4.65;2.90;;;8.20;99.90;;;;;;5079017;28;20050;-68
2024/02/11 06:22:29;;;;;;;10.18;3.65;;;8.10;99.90;;;;;;5069548;28;20040;-67
2024/02/11 06:24:58;;;;;;;4.68;3.35;;;8.10;99.90;;;;;;5070546;28;20878;-68
2024/02/11 06:27:24;;;;;;;6.95;3.60;;;8.10;99.90;;;;;;5067691;28;20044;-68
2024/02/11 06:29:50;;;;;;;5.78;3.00;;;8.20;99.90;;;;;;5069734;28;20032;-68
2024/02/11 06:32:16;;;;;;;;;;;8.10;99.90;;;;;;5067244;28;20048;-68
2024/02/11 06:34:41;;;;;;;4.63;2.60;;;8.10;99.90;;;;;;5074574;28;19927;-68
2024/02/11 06:37:09;;;;;;;;;;;8.10;99.90;;;;;;5073765;28;20503;-67
2024/02/11 06:39:38;;;;;;;6.93;2.83;;;8.10;99.90;;;;;;5073667;28;19920;-67
2024/02/11 06:42:05;;;;;;;4.82;3.17;;;8.10;99.90;;;;;;5068699;28;20036;-68
2024/02/11 06:44:32;;;;;;;5.07;3.15;;;8.20;99.90;;;;;;5071372;28;20028;-67
2024/02/11 06:46:58;;;;;;;3.47;2.75;;;8.20;99.90;;;;;;5069010;28;20049;-67
2024/02/11 06:49:24;;;;;;;4.15;3.33;;;8.30;99.90;;;;;;5072080;28;20040;-68
2024/02/11 06:51:55;;;;;;;4.68;3.03;;;8.30;99.90;;;;;;5071924;28;20162;-69
2024/02/11 06:54:21;;;;;;;4.93;3.13;;;8.30;99.90;;;;;;5066814;28;20040;-67
2024/02/11 06:56:47;;;;;;;6.82;3.25;;;8.30;99.90;;;;;;5070769;28;20044;-67
2024/02/11 06:59:19;;;;;;;5.57;2.97;;;8.30;99.90;;;;;;5063924;28;20063;-68
2024/02/11 07:01:45;;;;;;;5.20;3.20;;;8.30;99.90;;;;;;5067775;28;20029;-67
2024/02/11 07:04:14;;;;;;;4.68;3.20;;;8.30;99.90;;;;;;5067647;28;20036;-68
2024/02/11 07:06:46;;;;;;;5.28;2.45;;;8.20;99.90;;;;;;5066910;28;20447;-68
2024/02/11 07:09:12;;;;;;;4.70;2.53;;;8.30;99.90;;;;;;5082204;28;20028;-67
2024/02/11 07:11:38;;;;;;;;;;;8.30;99.90;;;;;;5068944;28;20044;-68
2024/02/11 07:14:06;;;;;;;3.60;2.20;;;8.30;99.90;;;;;;5066631;28;20452;-67
2024/02/11 07:16:43;;;;;;;3.38;2.38;;;8.30;99.90;;;;;;5053981;28;20041;-67
2024/02/11 07:19:09;;;;;;;4.78;2.28;;;8.30;99.90;;;;;;5070620;28;20097;-68
2024/02/11 07:21:39;;;;;;;5.97;3.05;;;8.30;99.90;;;;;;5069811;28;20036;-67
2024/02/11 07:24:08;;;;;;;6.78;2.70;;;8.30;99.90;;;;;;5074746;28;20043;-68
2024/02/11 07:26:38;;;;;;;4.28;2.50;;;8.30;99.90;;;;;;5069966;28;20051;-68
2024/02/11 07:29:04;;;;;;;4.25;2.10;;;8.30;99.90;;;;;;5069898;28;20036;-67
2024/02/11 07:31:30;;;;;;;;;;;8.40;99.90;;;;;;5083129;28;20040;-67
2024/02/11 07:33:55;;;;;;;11.63;1.90;;;8.40;99.90;;;;;;5079459;28;19926;-67
2024/02/11 07:36:24;;;;;;;;;;;8.40;99.90;;;;;;5082600;28;20469;-67
2024/02/11 07:38:51;;;;;;;2.83;2.03;;;8.40;99.90;;;;;;5081904;28;20306;-67
2024/02/11 07:41:18;;;;;;;4.72;2.00;;;8.40;99.90;;;;;;5078777;28;20110;-67
2024/02/11 07:43:44;;;;;;;3.40;2.13;;;8.40;99.90;;;;;;5075214;28;20062;-67
2024/02/11 07:46:13;;;;;;;3.03;2.00;;;8.40;99.90;;;;;;5077891;28;20044;-68
2024/02/11 07:48:43;;;;;;;6.13;2.08;;;8.40;99.90;;;;;;5081297;28;20152;-68
2024/02/11 07:51:09;;;;;;;6.80;3.38;;;8.40;99.90;;;;;;5077931;28;20044;-68
2024/02/11 07:53:34;;;;;;;3.50;1.92;;;8.30;99.90;;;;;;5083580;28;20032;-66
2024/02/11 07:56:00;;;;;;;;;;;8.40;99.90;;;;;;5073642;28;20042;-67
2024/02/11 07:58:26;;;;;;;3.65;1.98;;;8.40;99.90;;;;;;5074982;28;19920;-68
2024/02/11 08:00:51;;;;;;;3.30;2.13;;;8.40;99.90;;;;;;5076562;28;20044;-66
2024/02/11 08:03:19;;;;;;;;;;;8.40;99.90;;;;;;5073393;28;20119;-65
2024/02/11 08:05:44;;;;;;;4.13;2.60;;;8.40;99.90;;;;;;5073704;28;19920;-68
2024/02/11 08:08:10;;;;;;;6.30;3.08;;;8.40;99.90;;;;;;5074233;28;20250;-67
2024/02/11 08:10:36;;;;;;;5.30;2.70;;;8.40;99.90;;;;;;5066900;28;20039;-67
2024/02/11 08:13:02;;;;;;;;;;;8.40;99.90;;;;;;5068881;28;20044;-68
2024/02/11 08:15:27;;;;;;;3.40;2.40;;;8.40;99.90;;;;;;5066103;28;19986;-68
2024/02/11 08:17:53;;;;;;;;;;;8.40;99.90;;;;;;5067903;28;20040;-69
2024/02/11 08:20:19;;;;;;;4.15;3.00;;;8.40;99.90;;;;;;5073403;28;19916;-68
2024/02/11 08:22:45;;;;;;;;;;;8.40;99.90;;;;;;5064663;28;20036;-69
2024/02/11 08:25:12;;;;;;;5.05;3.75;;;8.30;99.90;;;;;;5070502;28;19925;-68
2024/02/11 08:27:38;;;;;;;4.30;3.55;;;8.30;99.90;;;;;;5071957;28;20037;-69
2024/02/11 08:30:06;;;;;;;5.22;2.88;;;8.30;99.90;;;;;;5073158;28;20043;-67
2024/02/11 08:32:31;;;;;;;5.35;2.95;;;8.20;99.90;;;;;;5086870;28;20709;-69
2024/02/11 08:34:57;;;;;;;;;;;8.20;99.90;;;;;;5094959;28;20040;-67
2024/02/11 08:37:23;;;;;;;2.33;1.63;;;8.20;99.90;;;;;;5085898;28;19991;-67
2024/02/11 08:39:50;;;;;;;1.85;1.23;;;8.20;99.90;;;;;;5094725;28;20061;-66
2024/02/11 08:42:16;;;;;;;1.30;0.85;;;8.30;99.90;;;;;;5083870;28;20068;-69
2024/02/11 08:44:42;;;;;;;1.20;1.00;;;8.20;99.90;;;;;;5090508;28;20036;-67
2024/02/11 08:47:10;;;;;;;3.22;0.80;;;8.30;99.90;;;;;;5097300;28;20097;-67
2024/02/11 08:49:36;;;;;;;1.63;0.80;;;8.30;99.90;;;;;;5086825;28;20047;-67
2024/02/11 08:52:02;;;;;;;1.00;0.57;;;8.30;99.90;;;;;;5090282;28;20849;-68
2024/02/11 08:54:29;;;;;;;0.50;0.40;;;8.30;99.90;;;;;;5080287;28;20047;-67
2024/02/11 08:56:55;;;;;;;2.20;0.55;;;8.30;99.90;;;;;;5089190;28;20660;-67
2024/02/11 08:59:21;;;;;;;1.38;0.30;;;8.30;99.90;;;;;;5083600;28;20044;-67
2024/02/11 09:01:53;;;;;;;;;;;8.30;99.90;;;;;;5091237;28;20399;-67
2024/02/11 09:04:21;;;;;;;0.77;0.40;;;8.30;99.90;;;;;;5096304;28;20422;-66
2024/02/11 09:06:49;;;;;;;1.08;0.45;;;8.30;99.90;;;;;;5091903;28;20047;-66
2024/02/11 09:09:14;;;;;;;0.75;0.32;;;8.30;99.90;;;;;;5093968;28;20036;-66
2024/02/11 09:11:40;;;;;;;;;;;8.30;99.90;;;;;;5094068;28;20039;-67
2024/02/11 09:14:06;;;;;;;1.33;0.30;;;8.40;99.90;;;;;;5082567;28;19924;-66
2024/02/11 09:16:31;;;;;;;0.35;0.35;;;8.40;99.90;;;;;;5088784;28;21962;-67
2024/02/11 09:18:57;;;;;;;0.52;0.20;;;8.30;99.90;;;;;;5089826;28;20032;-67
2024/02/11 09:21:23;;;;;;;0.93;0.32;;;8.30;99.90;;;;;;5091158;28;20036;-67
2024/02/11 09:23:48;;;;;;;;;;;8.20;99.90;;;;;;5092039;28;20440;-64
2024/02/11 09:26:14;;;;;;;0.30;0.30;;;8.20;99.90;;;;;;5093233;28;19924;-67
2024/02/11 09:28:42;;;;;;;0.70;0.30;;;8.20;99.90;;;;;;5094187;28;20032;-67
2024/02/11 09:31:10;;;;;;;1.33;0.30;;;8.30;99.90;;;;;;5094208;28;20673;-66
2024/02/11 09:33:38;;;;;;;0.60;0.40;;;8.40;99.90;;;;;;5093150;28;20201;-67
2024/02/11 09:36:06;;;;;;;0.47;0.40;;;8.40;99.90;;;;;;5094197;28;20040;-66
2024/02/11 09:38:32;;;;;;;1.17;0.50;;;8.50;99.90;;;;;;5088351;28;20050;-67
2024/02/11 09:40:59;;;;;;;1.15;0.55;;;8.60;99.90;;;;;;5086718;28;20039;-65
2024/02/11 09:43:27;;;;;;;3.03;0.68;;;8.60;99.90;;;;;;5091070;28;21417;-64
2024/02/11 09:45:58;;;;;;;1.10;0.82;;;8.60;99.90;;;;;;5086984;27;20613;-66
2024/02/11 09:48:26;;;;;;;2.45;1.05;;;8.60;99.90;;;;;;5087066;28;20081;-65
2024/02/11 09:50:53;;;;;;;3.47;0.90;;;8.60;99.90;;;;;;5090424;28;20035;-66
2024/02/11 09:53:19;;;;;;;5.70;1.50;;;8.60;99.90;;;;;;5087516;28;20032;-66
2024/02/11 09:55:45;;;;;;;5.45;1.92;;;8.50;99.90;;;;;;5084687;28;20633;-67
2024/02/11 09:58:12;;;;;;;2.65;1.70;;;8.40;99.90;;;;;;5086294;28;20160;-66
2024/02/11 10:00:37;;;;;;;4.93;2.22;;;8.40;99.90;;;;;;5084993;28;20515;-67
2024/02/11 10:03:06;;;;;;;;;;;8.20;99.90;;;;;;5085791;28;20073;-67
2024/02/11 10:05:33;;;;;;;3.17;2.10;;;8.10;99.90;;;;;;5078333;28;20030;-67
2024/02/11 10:08:01;;;;;;;6.43;2.50;;;8.10;99.90;;;;;;5092793;28;20054;-66
2024/02/11 10:10:27;;;;;;;7.30;3.05;;;8.00;99.90;;;;;;5090820;28;20560;-67
2024/02/11 10:12:57;;;;;;;10.20;2.90;;;7.90;99.90;;;;;;5085593;28;20621;-67
2024/02/11 10:15:25;;;;;;;6.03;3.00;;;7.80;99.90;;;;;;5086087;28;20044;-66
2024/02/11 10:17:51;;;;;;;6.68;3.70;;;7.80;99.90;;;;;;5087336;28;20066;-67
2024/02/11 10:20:17;;;;;;;6.38;3.30;;;7.80;99.90;;;;;;5093191;28;20035;-66
2024/02/11 10:22:43;;;;;;;6.68;3.17;;;7.70;99.90;;;;;;5087465;28;20464;-66
2024/02/11 10:25:11;;;;;;;7.50;3.72;;;7.80;99.90;;;;;;5088379;28;20028;-67
2024/02/11 10:27:37;;;;;;;10.93;3.33;;;7.80;99.90;;;;;;5089329;28;20040;-67
2024/02/11 10:30:09;;;;;;;;;;;7.90;99.90;;;;;;5083188;28;20039;-66
2024/02/11 10:32:36;;;;;;;5.38;3.30;;;7.80;99.90;;;;;;5068379;28;19916;-67
2024/02/11 10:35:04;;;;;;;9.05;3.45;;;7.90;99.90;;;;;;5072798;28;20032;-66
2024/02/11 10:37:45;;;;;;;8.70;3.08;;;7.90;99.90;;;;;;5058379;28;20032;-66
2024/02/11 10:40:11;;;;;;;7.20;3.25;;;7.90;99.90;;;;;;5068176;28;20123;-66
2024/02/11 10:42:41;;;;;;;8.70;3.10;;;8.00;99.90;;;;;;5069305;28;20110;-68
2024/02/11 10:45:09;;;;;;;6.57;2.65;;;8.00;99.90;;;;;;5067322;28;20406;-66
2024/02/11 10:47:36;;;;;;;5.25;2.55;;;8.00;99.90;;;;;;5057833;28;20053;-67
2024/02/11 10:50:03;;;;;;;5.53;2.63;;;7.90;99.90;;;;;;5071389;28;20047;-66
2024/02/11 10:52:36;;;;;;;5.82;2.47;;;7.80;99.90;;;;;;5068639;28;20450;-67
2024/02/11 10:55:03;;;;;;;4.95;2.22;;;7.80;99.90;;;;;;5071749;28;20040;-68
2024/02/11 10:57:34;;;;;;;4.45;2.58;;;7.90;99.90;;;;;;5065440;28;20526;-67
2024/02/11 11:00:01;;;;;;;5.50;2.08;;;7.80;99.90;;;;;;5068779;28;20051;-67
2024/02/11 11:02:31;;;;;;;4.97;2.45;;;7.90;99.90;;;;;;5069256;28;20135;-67
2024/02/11 11:05:10;;;;;;;8.02;2.22;;;8.00;99.90;;;;;;5071544;28;20046;-67
2024/02/11 11:07:38;;;;;;;6.10;2.50;;;8.10;99.90;;;;;;5058081;28;20139;-69
2024/02/11 11:10:10;;;;;;;4.72;1.98;;;8.00;99.90;;;;;;5071055;28;20047;-65
2024/02/11 11:12:36;;;;;;;4.55;1.70;;;8.10;99.90;;;;;;5070493;28;20473;-66
2024/02/11 11:15:08;;;;;;;2.90;1.67;;;8.10;99.90;;;;;;5072127;28;20123;-65
2024/02/11 11:17:35;;;;;;;3.33;1.83;;;8.10;99.90;;;;;;5068066;28;20048;-66
2024/02/11 11:20:01;;;;;;;4.22;1.88;;;8.10;99.90;;;;;;5071389;28;20058;-64
2024/02/11 11:22:33;;;;;;;2.28;1.70;;;8.10;99.90;;;;;;5069873;28;20528;-66
2024/02/11 11:24:59;;;;;;;2.30;1.58;;;8.20;99.90;;;;;;5063739;28;20041;-65
2024/02/11 11:27:25;;;;;;;2.95;1.75;;;8.10;99.90;;;;;;5060767;28;20076;-66
2024/02/11 11:29:54;;;;;;;;;;;8.00;99.90;;;;;;5065949;28;20491;-65
2024/02/11 11:32:24;;;;;;;6.45;2.25;;;8.10;99.90;;;;;;5066833;28;19920;-66
2024/02/11 11:34:53;;;;;;;4.00;1.98;;;8.10;99.90;;;;;;5071534;28;20036;-67
2024/02/11 11:37:19;;;;;;;3.20;1.88;;;8.20;99.90;;;;;;5067518;28;20619;-67
2024/02/11 11:39:45;;;;;;;;;;;8.20;99.90;;;;;;5073030;28;20047;-67
2024/02/11 11:42:11;;;;;;;5.95;2.28;;;8.30;99.90;;;;;;5068790;28;19920;-68
2024/02/11 11:44:38;;;;;;;4.63;1.90;;;8.20;99.90;;;;;;5068654;28;20044;-66
2024/02/11 11:47:05;;;;;;;5.15;2.13;;;8.30;99.90;;;;;;5072386;28;20047;-65
2024/02/11 11:49:32;;;;;;;5.68;2.25;;;8.30;99.90;;;;;;5067183;28;20039;-65
2024/02/11 11:51:58;;;;;;;4.50;2.15;;;8.30;99.90;;;;;;5071889;28;20036;-67
2024/02/11 11:54:31;;;;;;;3.15;2.00;;;8.20;99.90;;;;;;5068508;28;20120;-67
2024/02/11 11:56:57;;;;;;;6.43;2.55;;;8.20;99.90;;;;;;5067676;28;20059;-67
2024/02/11 11:59:22;;;;;;;;;;;8.10;99.90;;;;;;5065343;28;20432;-66
2024/02/11 12:01:48;;;;;;;4.28;2.25;;;8.10;99.90;;;;;;5065291;28;19953;-66
2024/02/11 12:04:14;;;;;;;;;;;8.10;99.90;;;;;;5065240;28;20031;-66
2024/02/11 12:06:40;;;;;;;3.92;1.75;;;8.10;99.90;;;;;;5068002;28;19924;-67
2024/02/11 12:09:06;;;;;;;2.20;1.73;;;8.00;99.90;;;;;;5065941;28;20625;-66
2024/02/11 12:11:32;;;;;;;2.75;1.80;;;8.00;99.90;;;;;;5066442;28;20040;-67
2024/02/11 12:13:57;;;;;;;3.50;1.40;;;7.90;99.90;;;;;;5071665;28;20074;-67
2024/02/11 12:16:24;;;;;;;4.85;1.90;;;7.80;99.90;;;;;;5072908;28;20419;-67
2024/02/11 12:18:50;;;;;;;3.38;1.50;;;7.80;99.90;;;;;;5074058;28;20032;-67
2024/02/11 12:21:18;;;;;;;3.88;2.03;;;7.80;99.90;;;;;;5071174;28;20044;-68
2024/02/11 12:23:44;;;;;;;3.15;1.42;;;7.90;99.90;;;;;;5064736;28;20044;-67
2024/02/11 12:26:10;;;;;;;4.45;1.90;;;7.90;99.90;;;;;;5072449;28;20039;-68
2024/02/11 12:28:37;;;;;;;;;;;7.90;99.90;;;;;;5070729;28;20056;-69
2024/02/11 12:31:13;;;;;;;2.00;1.30;;;7.90;99.90;;;;;;5061118;28;19954;-67
2024/02/11 12:33:39;;;;;;;3.47;1.70;;;8.00;99.90;;;;;;5077600;28;20043;-68
2024/02/11 12:36:06;;;;;;;2.63;1.60;;;8.00;99.90;;;;;;5078686;28;20044;-68
2024/02/11 12:38:33;;;;;;;5.75;1.85;;;8.10;99.90;;;;;;5065638;28;20082;-66
2024/02/11 12:41:00;;;;;;;5.20;2.17;;;8.00;99.90;;;;;;5069509;28;20052;-67
2024/02/11 12:43:25;;;;;;;3.10;1.63;;;8.00;99.90;;;;;;5067355;28;20044;-65
2024/02/11 12:45:51;;;;;;;;;;;8.00;99.90;;;;;;5070451;28;20040;-67
2024/02/11 12:48:17;;;;;;;5.38;2.08;;;8.00;99.90;;;;;;5073616;28;20578;-67
2024/02/11 12:50:42;;;;;;;;;;;8.10;99.90;;;;;;5073819;28;20036;-67
2024/02/11 12:53:10;;;;;;;3.70;1.92;;;8.20;99.90;;;;;;5071210;28;20007;-67
2024/02/11 12:55:36;;;;;;;5.07;2.00;;;8.20;99.90;;;;;;5071706;28;20041;-67
2024/02/11 12:58:03;;;;;;;;;;;8.20;99.90;;;;;;5072880;28;20071;-67
2024/02/11 13:00:28;;;;;;;4.07;2.08;;;8.30;99.90;;;;;;5069858;28;19930;-66
2024/02/11 13:02:56;;;;;;;8.15;2.15;;;8.30;99.90;;;;;;5072224;28;20032;-67
2024/02/11 13:05:21;;;;;;;5.38;1.67;;;8.40;99.90;;;;;;5064248;28;20244;-66
2024/02/11 13:07:47;;;;;;;;;;;8.40;99.90;;;;;;5070978;28;20595;-65
2024/02/11 13:10:12;;;;;;;4.88;2.05;;;8.30;99.90;;;;;;5072009;28;20076;-67